SLSB/SRJ METAR and TAF weather

Enter ICAO airport designator
Station Type Date Time Source
SLSB METAR 2019/01/24 14:00 UTC NOAA

SLSB 241400Z 00000KT 9999 FEW020 SCT200 31/26 Q1014 A2995 HR72 RWY NML


Station Type Date Time Source
SLSB Decoded METAR 2019/01/24 14:00 UTC NOAA

San Borja, Bolivia (SLSB) 14-52S 066-52W
Jan 24, 2019 - 09:00 AM EST / 2019.01.24 1400 UTC
Wind: Calm:0
Visibility: greater than 7 mile(s):0
Sky conditions: partly cloudy
Temperature: 87 F (31 C)
Heat index: 99.7 F (37.6 C):1
Dew Point: 78 F (26 C)
Relative Humidity: 74%
Pressure (altimeter): 29.95 in. Hg (1014 hPa)
ob: SLSB 241400Z 00000KT 9999 FEW020 SCT200 31/26 Q1014 A2995 HR72 RWY NML
cycle: 14

Station Type Date Time Source
SLSB TAF UTC NOAA

Error!


Example: see airport list